Thursday, June 30, 2016
12:12 UTC
  |  Log In   |  Register Free
Airport Search:

Mount Sterling-Montgomery County Airport
(KIOB)

Mount Sterling-Montgomery County Airport Diagram
No Airport Diagram Available

FAA data valid effective May 26 2016 - Jul 21 2016 (unless otherwise noted).

 
 
 
 
 
 
 
 
 
 
 
 
 
 
Current Aviation Weather for KIOB

Weather Summary


The most recent METAR observation for IOB was updated at: 12:55 UTC
METAR for KIOB is not available. Closest METAR is for KSYM
KIOB  (most recent observation was updatred at 30:11 UTC)
301155Z AUTO 00000KT 10SM CLR 16/15 A3009 RMK AO2

KSYM  (20.8 nm SW)   (most recent observation was updated at 30:11 UTC)
301150Z AUTO 00000KT 10SM CLR 18/15 A3009 RMK AO2

KLEX  (29.6 nm NE)   (most recent observation was updated at 30:11 UTC)
301154Z 00000KT 10SM CLR 17/14 A3008 RMK AO2 SLP178 T01670144 10167 20139 53006

TAF for KIOB is not available.
KSYM  (20.8 nm SW)   (most recent observation was updatred at 30:11 UTC)
301120Z 3012/0112 VRB04KT P6SM FEW050 FEW250


KLEX  (29.6 nm NE)   (most recent observation was updatred at 30:11 UTC)
301120Z 3012/0112 VRB03KT P6SM FEW250 FM301400 05004KT P6SM FEW040 SCT250


GlobalAir.com is loading additional information.
 Current Weather at IOB
55.0 F° (13.0 C°)

North winds at 0.0 mph
Pressure:
30.09 in
Humidity:
94%
Wind:
North at 0.0 mph
Dew Point:
53.6 F° (12.0 C°)
Visibility:
10.00 mi
IOB NOAA Radar




Find All Airport Services Find A Hotel Find A Rental Car Find A Golf Course Find A Restaurant $100 Hamburger



Airport Weather Forecast for KIOB

Translated METAR for KIOB (1155 UTC)
METAR:
KIOB 301155Z AUTO 00000KT 10SM CLR 16/15 A3009 RMK AO2
Conditions at:
KIOB (Mount Sterling-Montgomery County, KY) observed 1155 UTC 30 June 2016
Temperature:
16°C (60.8°F)
Dewpoint:
15°C (59°F) [RH = 93.8]
Pressure:
30.09 inches Hg (1019 mb)
Winds:
from the N (000 degrees) at 0 mph (0 knots: 0 m/s)
Visibility:
10 mile(s)
Ceiling:
at least 12,000 feet AGL
Clouds:
Clear below 12,000 feet AGL
Remarks:
site is un-manned
site is automated and HAS a precipitation sensor

Translated TAF for KSYM (Morehead-Rowan County Clyde A Thomas Rgnl, KY) (1120 UTC)
TAF text:
KSYM 301120Z 3012/0112 VRB04KT P6SM FEW050 FEW250
Forecast period:
Thursday Jun 30 2016 12:00 UTC - Thursday Jun 30 2016 12:00 UTC
Forecast type:
FROM: standard forecast or significant change
Winds:
variable wind direction at 4.6 mph (4 knots: 2.1 m/s)
Visibility:
6 or more mile(s) (9.7+ km)
Ceiling:
at least 12,000 feet AGL
Clouds:
Few Clouds at 5,000 feet AGL
Few Clouds at 25,000 feet AGL
Weather:
no significant weather observed at this time
FBO's on the Field
FBO Company Facility Photos Services Transportation Aviation Fuel Prices: Prices include tax
Catering Weather Repair Courtesy Rental Type 100LL JetA JetA+ MOGAS 8087
 
Kentucky Airmotive Inc

This FBO has not yet been rated
FS:Shell
Last Updated: Jun-27
Login to update fuel prices
SS:
Contact Kentucky Airmotive IncMore FBO Information
 
Add another FBO Facility Photos Catering Weather Repair Courtesy Rental Type 100LL JetA JetA+ MOGAS 8087
Services Transportation Aviation Fuel Prices: Prices include tax


model-print
model-print
model-print
model-print